Time;durP1;ratioP1;P1;durP2;ratioP2;P2;SDS_P1;SDS_P2;PMS_P1;PMS_P2;Temp;Humidity;BMP_temperature;BMP_pressure;BME280_temperature;BME280_humidity;BME280_pressure;Samples;Min_cycle;Max_cycle;Signal;HPM_P1;HPM_P2
2022/01/15 00:02:03;;;;;;;24.63;6.50;;;;;;;0.32;100.00;99529.70;2187903;81;21039;-85
2022/01/15 00:05:04;;;;;;;21.37;6.87;;;;;;;0.31;100.00;99528.51;2187838;81;21523;-84
2022/01/15 00:08:04;;;;;;;25.55;6.90;;;;;;;0.28;100.00;99516.19;2176043;81;21474;-85
2022/01/15 00:11:05;;;;;;;20.08;7.37;;;;;;;0.23;100.00;99505.33;2171434;82;20993;-84
2022/01/15 00:14:15;;;;;;;31.95;9.38;;;;;;;0.22;100.00;99502.86;2171420;81;21002;-84
2022/01/15 00:17:33;;;;;;;17.62;6.55;;;;;;;0.18;100.00;99511.67;2127014;83;21072;-84
2022/01/15 00:20:23;;;;;;;31.33;10.03;;;;;;;0.17;100.00;99513.42;2170522;81;21112;-85
2022/01/15 00:23:24;;;;;;;22.95;7.17;;;;;;;0.15;100.00;99519.14;2171398;82;21513;-84
2022/01/15 00:26:25;;;;;;;23.85;8.98;;;;;;;0.14;100.00;99521.81;2171368;82;21006;-84
2022/01/15 00:29:26;;;;;;;23.73;8.70;;;;;;;0.10;100.00;99520.36;2171226;81;21034;-84
2022/01/15 00:32:27;;;;;;;27.87;9.10;;;;;;;0.07;100.00;99521.35;2171461;81;20993;-84
2022/01/15 00:35:27;;;;;;;21.97;7.53;;;;;;;0.04;100.00;99515.11;2171332;81;21028;-84
2022/01/15 00:38:28;;;;;;;23.32;9.23;;;;;;;0.03;100.00;99508.31;2171250;81;21520;-84
2022/01/15 00:41:29;;;;;;;18.75;5.78;;;;;;;0.02;100.00;99511.81;2171538;82;21065;-84
2022/01/15 00:44:30;;;;;;;22.42;7.47;;;;;;;0.01;100.00;99511.91;2170807;82;21532;-84
2022/01/15 00:47:31;;;;;;;15.40;6.25;;;;;;;-0.02;100.00;99518.88;2171252;82;21081;-85
2022/01/15 00:50:32;;;;;;;25.75;7.35;;;;;;;-0.03;100.00;99527.52;2171276;82;21097;-85
2022/01/15 00:53:33;;;;;;;17.32;7.42;;;;;;;-0.06;100.00;99526.43;2171458;81;21509;-85
2022/01/15 00:56:33;;;;;;;16.40;6.65;;;;;;;-0.08;100.00;99528.73;2171346;81;21049;-85
2022/01/15 00:59:34;;;;;;;24.57;8.48;;;;;;;-0.10;100.00;99532.66;2171687;81;21477;-85
2022/01/15 01:02:35;;;;;;;28.77;7.85;;;;;;;-0.12;100.00;99527.25;2173693;81;21031;-87
2022/01/15 01:05:36;;;;;;;17.73;7.05;;;;;;;-0.15;100.00;99537.74;2174051;82;21434;-85
2022/01/15 01:08:37;;;;;;;17.37;5.78;;;;;;;-0.19;100.00;99541.41;2173909;82;21094;-86
2022/01/15 01:11:51;;;;;;;23.65;7.40;;;;;;;-0.21;100.00;99539.39;2171389;81;21050;-86
2022/01/15 01:24:18;;;;;;;27.32;7.83;;;;;;;-0.32;100.00;99543.89;2097189;85;22207;-86
2022/01/15 01:27:27;;;;;;;24.32;7.92;;;;;;;-0.33;100.00;99546.09;2096597;85;21048;-86
2022/01/15 01:30:30;;;;;;;20.60;7.28;;;;;;;-0.37;100.00;99544.14;2095933;85;21049;-86
2022/01/15 01:33:33;;;;;;;23.70;7.08;;;;;;;-0.38;100.00;99541.66;2095869;85;21140;-86
2022/01/15 01:36:45;;;;;;;27.50;8.60;;;;;;;-0.41;100.00;99540.56;2096020;85;21115;-86
2022/01/15 01:39:44;;;;;;;21.40;6.72;;;;;;;-0.43;100.00;99547.56;2095272;85;21609;-85
2022/01/15 01:42:50;;;;;;;30.25;8.10;;;;;;;-0.46;100.00;99536.96;2095871;85;21084;-85
2022/01/15 01:45:48;;;;;;;23.40;7.15;;;;;;;-0.47;100.00;99539.17;2095185;85;21104;-85
2022/01/15 01:48:46;;;;;;;24.80;7.40;;;;;;;-0.51;100.00;99539.00;2095978;85;21639;-85
2022/01/15 01:51:47;;;;;;;25.17;8.53;;;;;;;-0.54;100.00;99540.47;2096667;85;21079;-85
2022/01/15 01:54:47;;;;;;;25.72;8.85;;;;;;;-0.52;100.00;99538.63;2134184;82;21105;-85
2022/01/15 01:57:48;;;;;;;26.23;7.25;;;;;;;-0.52;100.00;99539.09;2171362;81;21046;-86
2022/01/15 02:00:49;;;;;;;23.27;6.72;;;;;;;-0.52;100.00;99542.95;2171490;81;20993;-85
2022/01/15 02:03:50;;;;;;;23.05;7.65;;;;;;;-0.52;100.00;99540.38;2171376;81;21085;-86
2022/01/15 02:06:51;;;;;;;20.65;7.05;;;;;;;-0.54;100.00;99530.17;2171183;82;22119;-86
2022/01/15 02:09:51;;;;;;;21.75;6.58;;;;;;;-0.55;100.00;99536.21;2171515;81;21556;-85
2022/01/15 02:12:54;;;;;;;27.05;7.53;;;;;;;-0.58;100.00;99535.94;2171240;81;21042;-86
2022/01/15 02:15:55;;;;;;;18.10;6.87;;;;;;;-0.56;100.00;99551.28;2127014;84;21049;-85
2022/01/15 02:18:55;;;;;;;25.52;7.95;;;;;;;-0.57;100.00;99549.17;2126830;83;21000;-86
2022/01/15 02:25:16;;;;;;;21.07;7.40;;;;;;;-0.58;100.00;99544.12;2126821;84;21177;-86
2022/01/15 02:28:16;;;;;;;22.82;7.03;;;;;;;-0.60;100.00;99544.22;2126688;84;21485;-85
2022/01/15 02:31:17;;;;;;;27.70;8.05;;;;;;;-0.57;100.00;99545.31;2126666;84;20980;-85
2022/01/15 02:34:18;;;;;;;18.35;6.95;;;;;;;-0.59;100.00;99553.59;2126774;84;21033;-85
2022/01/15 02:37:19;;;;;;;22.05;6.83;;;;;;;-0.58;100.00;99542.83;2126684;84;21525;-86
2022/01/15 02:40:20;;;;;;;18.40;6.25;;;;;;;-0.59;100.00;99547.16;2126717;84;21583;-86
2022/01/15 02:43:21;;;;;;;24.07;7.45;;;;;;;-0.60;100.00;99548.08;2126737;84;20933;-86
2022/01/15 02:46:34;;;;;;;20.27;7.10;;;;;;;-0.62;100.00;99552.48;2126607;83;21073;-86
2022/01/15 02:49:25;;;;;;;28.32;7.22;;;;;;;-0.63;100.00;99550.83;2170135;81;21466;-86
2022/01/15 02:52:25;;;;;;;17.62;6.80;;;;;;;-0.65;100.00;99543.64;2171352;81;21009;-85
2022/01/15 02:55:26;;;;;;;18.20;6.58;;;;;;;-0.66;100.00;99539.88;2171343;81;21026;-86
2022/01/15 02:58:27;;;;;;;24.00;7.35;;;;;;;-0.69;100.00;99544.74;2171238;81;21121;-86
2022/01/15 03:01:28;;;;;;;22.25;6.78;;;;;;;-0.70;100.00;99535.84;2171154;82;20955;-85
2022/01/15 03:04:29;;;;;;;21.70;8.33;;;;;;;-0.70;100.00;99545.66;2171322;81;21013;-86
2022/01/15 03:07:29;;;;;;;25.90;7.65;;;;;;;-0.71;100.00;99541.44;2175199;81;21544;-86
2022/01/15 03:10:30;;;;;;;24.40;8.45;;;;;;;-0.73;100.00;99531.70;2187847;81;20962;-86
2022/01/15 03:13:31;;;;;;;25.88;7.83;;;;;;;-0.77;100.00;99525.52;2187909;81;20981;-86
2022/01/15 03:16:32;;;;;;;25.52;8.30;;;;;;;-0.78;100.00;99530.30;2187921;81;21022;-86
2022/01/15 03:19:33;;;;;;;25.25;8.28;;;;;;;-0.80;100.00;99522.68;2187790;81;21016;-85
2022/01/15 03:22:33;;;;;;;25.35;7.85;;;;;;;-0.81;100.00;99527.45;2187881;81;21513;-85
2022/01/15 03:25:34;;;;;;;18.20;6.50;;;;;;;-0.83;100.00;99513.01;2187974;81;20926;-85
2022/01/15 03:28:35;;;;;;;20.88;7.03;;;;;;;-0.83;100.00;99530.55;2187993;81;21024;-85
2022/01/15 03:31:36;;;;;;;25.12;9.28;;;;;;;-0.83;100.00;99529.27;2187954;81;20918;-85
2022/01/15 03:34:37;;;;;;;20.00;7.67;;;;;;;-0.82;100.00;99533.95;2187959;81;21024;-85
2022/01/15 03:37:37;;;;;;;13.03;5.58;;;;;;;-0.84;100.00;99532.75;2188040;81;21557;-85
2022/01/15 03:40:38;;;;;;;23.75;7.97;;;;;;;-0.88;100.00;99538.55;2188002;81;20926;-86
2022/01/15 03:43:40;;;;;;;27.35;7.60;;;;;;;-0.90;100.00;99541.66;2188199;81;20970;-85
2022/01/15 03:46:41;;;;;;;20.60;6.97;;;;;;;-0.90;100.00;99552.41;2187755;81;20985;-86
2022/01/15 03:49:42;;;;;;;24.82;8.25;;;;;;;-0.91;100.00;99550.30;2187946;81;20954;-86
2022/01/15 03:52:43;;;;;;;23.07;7.85;;;;;;;-0.90;100.00;99562.23;2187767;81;21526;-86
2022/01/15 03:55:44;;;;;;;23.15;8.83;;;;;;;-0.86;100.00;99552.59;2187800;81;20957;-86
2022/01/15 03:58:44;;;;;;;25.12;8.98;;;;;;;-0.88;100.00;99555.25;2187999;81;21034;-86
2022/01/15 04:01:45;;;;;;;19.25;7.83;;;;;;;-0.85;100.00;99545.24;2187965;81;20969;-86
2022/01/15 04:04:46;;;;;;;20.55;7.25;;;;;;;-0.84;100.00;99540.93;2187617;81;20998;-86
2022/01/15 04:07:47;;;;;;;17.32;8.03;;;;;;;-0.86;100.00;99536.70;2183528;81;21164;-86
2022/01/15 04:10:48;;;;;;;24.82;9.70;;;;;;;-0.87;100.00;99547.91;2171386;82;20962;-86
2022/01/15 04:13:48;;;;;;;26.33;9.25;;;;;;;-0.90;100.00;99538.27;2171279;82;21030;-86
2022/01/15 04:16:49;;;;;;;27.15;10.08;;;;;;;-0.91;100.00;99553.33;2171309;81;21103;-85
2022/01/15 04:19:50;;;;;;;22.17;9.33;;;;;;;-0.93;100.00;99547.42;2171427;81;21058;-85
2022/01/15 04:22:51;;;;;;;30.15;10.98;;;;;;;-0.98;100.00;99550.27;2171373;82;21041;-85
2022/01/15 04:25:52;;;;;;;25.70;10.08;;;;;;;-0.99;100.00;99575.61;2171233;81;21033;-85
2022/01/15 04:28:52;;;;;;;25.25;9.80;;;;;;;-1.00;100.00;99565.41;2171396;81;20923;-85
2022/01/15 04:31:53;;;;;;;21.77;9.73;;;;;;;-1.03;100.00;99556.11;2171607;82;21051;-84
2022/01/15 04:34:54;;;;;;;20.75;9.03;;;;;;;-1.02;100.00;99565.94;2170868;82;21002;-85
2022/01/15 04:38:03;;;;;;;22.20;9.93;;;;;;;-1.02;100.00;99564.65;2171296;81;21057;-85
2022/01/15 04:40:58;;;;;;;24.35;9.20;;;;;;;-1.03;100.00;99560.42;2126077;84;21112;-85
2022/01/15 04:43:58;;;;;;;29.52;10.03;;;;;;;-1.07;100.00;99561.52;2126921;83;20966;-85
2022/01/15 04:47:04;;;;;;;26.45;8.70;;;;;;;-1.07;100.00;99573.09;2170159;81;21038;-85
2022/01/15 04:50:05;;;;;;;14.55;6.00;;;;;;;-1.06;100.00;99565.29;2170813;81;21041;-85
2022/01/15 04:53:08;;;;;;;23.87;9.98;;;;;;;-1.07;100.00;99557.66;2171138;81;20959;-85
2022/01/15 04:56:09;;;;;;;24.27;8.78;;;;;;;-1.09;100.00;99565.47;2126793;83;21065;-85
2022/01/15 04:59:10;;;;;;;23.27;9.20;;;;;;;-1.08;100.00;99567.13;2126830;84;21140;-86
2022/01/15 05:02:11;;;;;;;24.15;8.73;;;;;;;-1.08;100.00;99573.55;2126793;84;21037;-86
2022/01/15 05:05:13;;;;;;;24.15;9.33;;;;;;;-1.06;100.00;99576.86;2126778;84;21076;-86
2022/01/15 05:08:14;;;;;;;29.02;10.28;;;;;;;-1.05;100.00;99578.97;2129643;83;21008;-86
2022/01/15 05:11:27;;;;;;;25.92;8.85;;;;;;;-1.03;100.00;99588.70;2181279;82;21048;-85
2022/01/15 05:14:17;;;;;;;24.25;8.28;;;;;;;-1.01;100.00;99593.30;2133713;83;21067;-85
2022/01/15 05:17:18;;;;;;;30.05;9.90;;;;;;;-1.02;100.00;99583.47;2136336;83;21471;-85
2022/01/15 05:20:21;;;;;;;13.68;8.20;;;;;;;-1.00;100.00;99601.41;2136358;83;21068;-85
2022/01/15 05:23:21;;;;;;;22.45;9.30;;;;;;;-1.00;100.00;99590.66;2181095;81;21065;-85
2022/01/15 05:26:22;;;;;;;36.50;10.40;;;;;;;-0.98;100.00;99601.69;2136324;83;21528;-85
2022/01/15 05:29:23;;;;;;;22.93;9.55;;;;;;;-0.97;100.00;99596.91;2181075;81;21013;-85
2022/01/15 05:32:24;;;;;;;17.75;8.10;;;;;;;-0.92;100.00;99609.50;2136142;83;21000;-85
2022/01/15 05:35:27;;;;;;;20.08;8.58;;;;;;;-0.91;100.00;99608.15;2136284;83;21076;-86
2022/01/15 05:38:27;;;;;;;26.05;8.88;;;;;;;-0.91;100.00;99608.15;2181194;81;21040;-86
2022/01/15 05:41:28;;;;;;;30.08;8.38;;;;;;;-0.85;100.00;99615.96;2181303;82;20982;-86
2022/01/15 05:44:29;;;;;;;22.90;9.35;;;;;;;-0.85;100.00;99615.96;2181046;81;20981;-86
2022/01/15 05:47:29;;;;;;;22.65;9.33;;;;;;;-0.85;100.00;99626.25;2181262;81;21531;-85
2022/01/15 05:50:30;;;;;;;26.42;8.63;;;;;;;-0.87;100.00;99623.77;2181316;82;20981;-88
2022/01/15 05:53:31;;;;;;;14.80;7.87;;;;;;;-0.90;100.00;99630.38;2136169;83;21043;-88
2022/01/15 05:56:32;;;;;;;15.60;8.05;;;;;;;-0.88;100.00;99615.69;2136166;83;20977;-91
2022/01/15 05:59:34;;;;;;;21.12;9.25;;;;;;;-0.89;100.00;99618.34;2136381;83;20991;-86
2022/01/15 06:02:34;;;;;;;21.33;8.65;;;;;;;-0.90;100.00;99626.98;2136248;83;21077;-85
2022/01/15 06:05:35;;;;;;;26.35;9.63;;;;;;;-0.90;100.00;99629.55;2136087;83;20977;-85
2022/01/15 06:08:36;;;;;;;25.20;8.73;;;;;;;-0.90;100.00;99635.97;2132838;83;21044;-85
2022/01/15 06:11:39;;;;;;;21.27;7.97;;;;;;;-0.91;100.00;99642.86;2126893;84;21077;-87
2022/01/15 06:14:40;;;;;;;21.33;9.28;;;;;;;-0.92;100.00;99637.31;2171056;81;21025;-80
2022/01/15 06:17:40;;;;;;;21.80;8.55;;;;;;;-0.93;100.00;99634.38;2171236;81;21046;-83
2022/01/15 06:20:41;;;;;;;20.80;9.18;;;;;;;-0.95;100.00;99641.81;2171336;81;21527;-84
2022/01/15 06:23:42;;;;;;;20.72;7.50;;;;;;;-0.96;100.00;99635.84;2171124;82;20939;-82
2022/01/15 06:26:43;;;;;;;28.02;9.80;;;;;;;-0.99;100.00;99637.31;2171305;82;21013;-92
2022/01/15 06:29:44;;;;;;;21.40;10.60;;;;;;;-0.99;100.00;99638.59;2171196;81;21056;-89
2022/01/15 06:32:44;;;;;;;22.40;10.68;;;;;;;-0.98;100.00;99633.00;2171141;81;20962;-87
2022/01/15 06:35:45;;;;;;;19.17;8.28;;;;;;;-0.99;100.00;99648.05;2171123;81;21069;-88
2022/01/15 06:38:47;;;;;;;21.17;10.58;;;;;;;-1.02;100.00;99640.02;2171046;81;21025;-89
2022/01/15 06:41:47;;;;;;;26.87;9.70;;;;;;;-0.99;100.00;99645.48;2171248;81;21004;-86
2022/01/15 06:44:48;;;;;;;23.00;9.20;;;;;;;-0.99;100.00;99650.63;2171135;81;21018;-85
2022/01/15 06:47:49;;;;;;;19.35;9.18;;;;;;;-1.00;100.00;99661.36;2171134;81;21061;-86
2022/01/15 06:50:50;;;;;;;23.55;8.68;;;;;;;-1.00;100.00;99647.22;2171079;82;20986;-88
2022/01/15 06:53:51;;;;;;;24.92;11.40;;;;;;;-1.01;100.00;99654.99;2171316;81;21089;-91
2022/01/15 06:56:51;;;;;;;19.20;9.78;;;;;;;-1.02;100.00;99657.19;2171250;81;21009;-87
2022/01/15 06:59:52;;;;;;;20.95;9.53;;;;;;;-1.00;100.00;99664.39;2171082;81;21043;-90
2022/01/15 07:02:53;;;;;;;22.52;9.38;;;;;;;-1.01;100.00;99658.39;2171171;81;20986;-83
2022/01/15 07:05:54;;;;;;;26.00;9.60;;;;;;;-1.02;100.00;99649.02;2171306;81;21022;-86
2022/01/15 07:08:55;;;;;;;20.12;9.45;;;;;;;-1.04;100.00;99656.00;2171105;82;21002;-87
2022/01/15 07:11:56;;;;;;;29.20;10.40;;;;;;;-1.00;100.00;99665.68;2171334;81;21098;-83
2022/01/15 07:14:57;;;;;;;25.52;10.72;;;;;;;-0.98;100.00;99665.95;2171172;82;20994;-84
2022/01/15 07:17:59;;;;;;;23.67;9.93;;;;;;;-0.95;100.00;99667.52;2171093;82;21573;-89
2022/01/15 07:21:00;;;;;;;22.82;10.45;;;;;;;-0.91;100.00;99678.03;2171069;81;21057;-86
2022/01/15 07:24:01;;;;;;;27.00;8.78;;;;;;;-0.89;100.00;99682.17;2171334;82;20939;-86
2022/01/15 07:27:02;;;;;;;19.25;8.65;;;;;;;-0.83;100.00;99691.73;2171175;81;20998;-86
2022/01/15 07:30:02;;;;;;;19.73;9.50;;;;;;;-0.80;100.00;99684.70;2171041;82;21022;-84
2022/01/15 07:33:03;;;;;;;20.25;9.70;;;;;;;-0.77;100.00;99687.55;2171166;81;21072;-85
2022/01/15 07:36:04;;;;;;;21.10;10.15;;;;;;;-0.69;100.00;99691.36;2170991;82;21002;-85
2022/01/15 07:39:05;;;;;;;26.93;9.08;;;;;;;-0.66;100.00;99686.03;2171391;81;21136;-90
2022/01/15 07:42:06;;;;;;;17.32;8.20;;;;;;;-0.62;100.00;99690.11;2171452;82;21057;-83
2022/01/15 07:45:07;;;;;;;25.35;9.33;;;;;;;-0.58;100.00;99686.44;2171317;82;21057;-87
2022/01/15 07:48:08;;;;;;;15.43;8.45;;;;;;;-0.53;100.00;99678.94;2171444;82;21521;-86
2022/01/15 07:51:09;;;;;;;23.18;9.15;;;;;;;-0.49;100.00;99683.81;2171396;81;20954;-85
2022/01/15 07:54:09;;;;;;;24.05;9.63;;;;;;;-0.49;100.00;99686.38;2171213;82;21054;-85
2022/01/15 07:57:10;;;;;;;20.80;8.75;;;;;;;-0.46;100.00;99682.80;2171742;81;20989;-87
2022/01/15 08:00:11;;;;;;;20.17;8.38;;;;;;;-0.46;100.00;99684.09;2172259;81;20998;-86
2022/01/15 08:03:12;;;;;;;18.15;9.15;;;;;;;-0.41;100.00;99690.64;2171501;82;20927;-88
2022/01/15 08:06:14;;;;;;;25.62;10.35;;;;;;;-0.36;100.00;99696.37;2171649;82;20946;-87
2022/01/15 08:09:15;;;;;;;24.07;10.75;;;;;;;-0.34;100.00;99692.42;2178388;81;21009;-85
2022/01/15 08:12:19;;;;;;;19.15;8.78;;;;;;;-0.27;100.00;99698.03;2187823;81;21576;-87
2022/01/15 08:15:20;;;;;;;25.77;11.45;;;;;;;-0.22;100.00;99697.33;2188206;81;21421;-85
2022/01/15 08:18:21;;;;;;;22.48;10.43;;;;;;;-0.14;100.00;99704.16;2188190;81;21021;-89
2022/01/15 08:21:22;;;;;;;18.65;9.78;;;;;;;-0.11;100.00;99698.36;2187738;81;21572;-90
2022/01/15 08:24:23;;;;;;;25.65;10.28;;;;;;;-0.09;100.00;99709.42;2188108;81;21005;-89
2022/01/15 08:27:24;;;;;;;29.82;12.45;;;;;;;-0.06;100.00;99713.56;2187920;81;20958;-88
2022/01/15 08:30:24;;;;;;;19.12;10.00;;;;;;;0.01;100.00;99717.91;2187913;81;20961;-87
2022/01/15 08:33:25;;;;;;;25.15;11.57;;;;;;;0.04;100.00;99721.58;2188060;81;21096;-88
2022/01/15 08:36:27;;;;;;;23.47;10.32;;;;;;;0.10;100.00;99722.53;2187994;81;21331;-87
2022/01/15 08:39:28;;;;;;;22.73;11.25;;;;;;;0.18;100.00;99730.19;2187995;81;21591;-93
2022/01/15 08:42:29;;;;;;;24.30;9.78;;;;;;;0.25;100.00;99719.04;2188066;81;21028;-93
2022/01/15 08:45:30;;;;;;;25.40;12.07;;;;;;;0.26;100.00;99722.81;2188105;81;20997;-92
2022/01/15 08:48:31;;;;;;;20.05;10.00;;;;;;;0.29;100.00;99729.55;2187821;81;21024;-92
2022/01/15 08:51:31;;;;;;;18.07;9.23;;;;;;;0.39;100.00;99728.55;2188246;81;21076;-90
2022/01/15 08:54:32;;;;;;;20.62;9.23;;;;;;;0.51;100.00;99722.20;2188777;81;20954;-88
2022/01/15 08:57:33;;;;;;;19.40;9.90;;;;;;;0.64;100.00;99726.17;2187882;81;21000;-87
2022/01/15 09:00:34;;;;;;;20.57;9.50;;;;;;;0.71;100.00;99726.61;2188124;81;21612;-88
2022/01/15 09:03:35;;;;;;;13.83;7.47;;;;;;;0.83;100.00;99729.77;2188416;81;21016;-86
2022/01/15 09:06:39;;;;;;;19.57;10.20;;;;;;;0.92;100.00;99727.08;2189763;81;21490;-88
2022/01/15 09:09:38;;;;;;;23.20;10.28;;;;;;;0.99;100.00;99716.73;2188467;81;21013;-86
2022/01/15 09:12:39;;;;;;;20.15;9.53;;;;;;;0.97;100.00;99715.55;2188907;81;20986;-90
2022/01/15 09:15:40;;;;;;;18.85;9.58;;;;;;;1.02;100.00;99712.23;2189072;81;20970;-85
2022/01/15 09:18:41;;;;;;;22.95;11.20;;;;;;;1.06;100.00;99707.70;2189407;81;21024;-86
2022/01/15 09:21:42;;;;;;;22.22;11.28;;;;;;;1.02;100.00;99712.70;2188380;81;21470;-86
2022/01/15 09:24:46;;;;;;;19.20;9.78;;;;;;;1.00;100.00;99721.80;2188088;81;20974;-89
2022/01/15 09:31:06;;;;;;;21.57;9.80;;;;;;;0.96;100.00;99720.34;2188085;81;21008;-88
2022/01/15 09:34:07;;;;;;;19.32;11.00;;;;;;;0.92;100.00;99715.48;2187779;81;21001;-89
2022/01/15 09:37:11;;;;;;;19.75;9.88;;;;;;;0.87;100.00;99724.77;2188091;81;21004;-89
2022/01/15 09:40:10;;;;;;;31.20;11.05;;;;;;;0.77;100.00;99727.08;2187873;81;21105;-88
2022/01/15 09:43:12;;;;;;;26.33;10.00;;;;;;;0.78;100.00;99718.88;2190581;81;21488;-86
2022/01/15 09:46:13;;;;;;;17.73;8.90;;;;;;;0.79;100.00;99730.39;2191546;81;20981;-86
2022/01/15 09:49:14;;;;;;;22.17;9.55;;;;;;;0.76;100.00;99725.42;2190678;81;21021;-86
2022/01/15 09:52:14;;;;;;;19.98;10.85;;;;;;;0.76;100.00;99729.30;2189661;81;20922;-85
2022/01/15 09:55:20;;;;;;;19.12;9.35;;;;;;;0.80;100.00;99736.38;2190302;81;21064;-86
2022/01/15 09:58:18;;;;;;;22.30;10.23;;;;;;;0.89;100.00;99724.67;2188758;81;21611;-89
2022/01/15 10:01:19;;;;;;;27.82;9.40;;;;;;;0.89;100.00;99726.79;2171137;81;20985;-88
2022/01/15 10:04:19;;;;;;;21.07;8.98;;;;;;;0.91;100.00;99710.75;2187946;81;20989;-84
2022/01/15 10:07:22;;;;;;;20.92;9.73;;;;;;;0.92;100.00;99704.70;2187992;81;21004;-85
2022/01/15 10:10:23;;;;;;;29.40;9.68;;;;;;;0.92;100.00;99712.90;2178354;81;21191;-89
2022/01/15 10:13:24;;;;;;;23.55;9.40;;;;;;;0.94;100.00;99713.16;2171615;81;21045;-87
2022/01/15 10:16:24;;;;;;;18.87;8.78;;;;;;;0.94;100.00;99713.16;2171426;81;20973;-85
2022/01/15 10:19:25;;;;;;;22.50;9.43;;;;;;;0.96;100.00;99722.92;2171206;81;21085;-87
2022/01/15 10:22:26;;;;;;;19.70;10.08;;;;;;;1.00;100.00;99706.78;2170909;81;21069;-90
2022/01/15 10:25:28;;;;;;;18.95;9.05;;;;;;;1.05;100.00;99708.62;2172263;81;20982;-87
2022/01/15 10:28:29;;;;;;;21.37;9.10;;;;;;;1.11;100.00;99703.92;2171133;81;20971;-90
2022/01/15 10:31:30;;;;;;;20.08;8.83;;;;;;;1.12;100.00;99712.03;2171308;82;21553;-91
2022/01/15 10:34:31;;;;;;;18.17;8.18;;;;;;;1.10;100.00;99707.44;2171347;81;20954;-90
2022/01/15 10:37:36;;;;;;;21.68;9.25;;;;;;;1.14;100.00;99704.19;2171448;82;21537;-89
2022/01/15 10:40:34;;;;;;;24.57;9.68;;;;;;;1.18;100.00;99713.84;2126464;84;20985;-89
2022/01/15 10:43:35;;;;;;;22.17;9.40;;;;;;;1.23;100.00;99704.91;2127022;84;21036;-88
2022/01/15 10:46:36;;;;;;;24.18;8.95;;;;;;;1.24;100.00;99697.98;2126744;84;20965;-88
2022/01/15 10:49:38;;;;;;;20.57;10.13;;;;;;;1.25;100.00;99704.34;2126284;84;21453;-86
2022/01/15 10:52:39;;;;;;;27.48;10.38;;;;;;;1.33;100.00;99705.16;2164112;80;21096;-87
2022/01/15 10:55:40;;;;;;;26.40;9.50;;;;;;;1.40;100.00;99716.28;2177635;80;21036;-86
2022/01/15 10:58:42;;;;;;;19.00;9.83;;;;;;;1.48;100.00;99714.52;2163370;82;21034;-85
2022/01/15 11:01:43;;;;;;;16.25;8.43;;;;;;;1.54;100.00;99714.10;2168802;82;21680;-87
2022/01/15 11:04:44;;;;;;;30.70;10.68;;;;;;;1.57;100.00;99714.39;2169466;82;20936;-86
2022/01/15 11:07:45;;;;;;;24.60;9.98;;;;;;;1.58;100.00;99701.84;2169505;82;21011;-83
2022/01/15 11:10:45;;;;;;;20.02;9.78;;;;;;;1.63;100.00;99708.81;2168571;82;21578;-84
2022/01/15 11:13:46;;;;;;;24.43;8.68;;;;;;;1.69;100.00;99718.76;2168944;82;20987;-86
2022/01/15 11:16:47;;;;;;;19.17;8.75;;;;;;;1.73;100.00;99710.34;2161846;80;21058;-83
2022/01/15 11:19:48;;;;;;;22.60;9.13;;;;;;;1.78;100.00;99706.55;2148604;82;20989;-86
2022/01/15 11:22:48;;;;;;;23.98;10.43;;;;;;;1.80;100.00;99704.68;2114289;82;21110;-87
2022/01/15 11:25:49;;;;;;;32.45;11.85;;;;;;;1.83;100.00;99701.92;2103365;85;20995;-85
2022/01/15 11:28:50;;;;;;;18.00;9.20;;;;;;;1.85;100.00;99697.47;2158808;82;21023;-89
2022/01/15 11:31:50;;;;;;;22.52;9.43;;;;;;;1.88;100.00;99698.55;2170271;82;20985;-85
2022/01/15 11:34:51;;;;;;;18.52;8.03;;;;;;;1.90;100.00;99689.41;2177912;82;21579;-87
2022/01/15 11:37:56;;;;;;;24.95;9.95;;;;;;;1.93;100.00;99700.84;2177632;82;20945;-91
2022/01/15 11:40:57;;;;;;;21.90;9.68;;;;;;;1.96;100.00;99698.05;2177984;82;21057;-89
2022/01/15 11:43:58;;;;;;;20.23;8.95;;;;;;;2.00;100.00;99689.16;2181281;80;20965;-89
2022/01/15 11:47:00;;;;;;;20.02;8.43;;;;;;;2.02;100.00;99680.87;2176409;82;20960;-89
2022/01/15 11:50:02;;;;;;;21.17;8.75;;;;;;;2.04;100.00;99686.75;2169020;82;21498;-89
2022/01/15 11:53:05;;;;;;;21.57;8.43;;;;;;;2.05;100.00;99694.04;2169285;82;21462;-90
2022/01/15 11:56:05;;;;;;;14.63;7.22;;;;;;;2.09;100.00;99687.73;2169055;82;21002;-89
2022/01/15 11:59:06;;;;;;;17.12;8.20;;;;;;;2.11;100.00;99680.26;2169213;82;21043;-91
2022/01/15 12:02:07;;;;;;;14.60;6.87;;;;;;;2.17;100.00;99688.05;2170713;82;21024;-91
2022/01/15 12:05:07;;;;;;;12.63;5.83;;;;;;;2.21;100.00;99690.80;2179521;82;21019;-91
2022/01/15 12:08:08;;;;;;;15.75;8.10;;;;;;;2.26;100.00;99695.18;2175463;82;21459;-88
2022/01/15 12:11:09;;;;;;;17.80;8.98;;;;;;;2.30;100.00;99697.12;2171445;82;21101;-89
2022/01/15 12:14:10;;;;;;;18.07;8.15;;;;;;;2.37;100.00;99691.41;2176154;82;20925;-89
2022/01/15 12:17:11;;;;;;;15.50;7.08;;;;;;;2.39;100.00;99684.40;2176777;82;21069;-90
2022/01/15 12:20:11;;;;;;;12.43;6.45;;;;;;;2.42;100.00;99689.34;2171267;82;21588;-91
2022/01/15 12:23:12;;;;;;;13.78;7.30;;;;;;;2.44;100.00;99682.78;2135820;82;21003;-90
2022/01/15 12:26:13;;;;;;;14.68;7.10;;;;;;;2.44;100.00;99692.65;2102293;84;21109;-92
2022/01/15 12:29:13;;;;;;;14.40;6.53;;;;;;;2.43;100.00;99690.17;2094195;84;21011;-89
2022/01/15 12:32:14;;;;;;;18.62;8.50;;;;;;;2.45;100.00;99690.89;2168200;82;20994;-92
2022/01/15 12:35:15;;;;;;;19.57;7.53;;;;;;;2.47;100.00;99687.73;2169401;82;20971;-90
2022/01/15 12:38:21;;;;;;;18.35;8.28;;;;;;;2.51;100.00;99696.48;2169154;82;21045;-91
2022/01/15 12:41:19;;;;;;;18.07;8.03;;;;;;;2.51;100.00;99689.19;2168572;82;21046;-92
2022/01/15 12:44:19;;;;;;;13.98;8.30;;;;;;;2.53;100.00;99682.97;2169246;82;21542;-91
2022/01/15 12:47:20;;;;;;;18.90;8.33;;;;;;;2.56;100.00;99681.93;2169345;82;20932;-92
2022/01/15 12:50:21;;;;;;;21.95;9.25;;;;;;;2.57;100.00;99678.44;2169342;82;21030;-91
2022/01/15 12:53:21;;;;;;;19.98;8.28;;;;;;;2.56;100.00;99683.22;2169289;82;21006;-91
2022/01/15 12:56:22;;;;;;;21.60;7.90;;;;;;;2.54;100.00;99684.62;2169296;82;21043;-91
2022/01/15 12:59:23;;;;;;;26.87;10.15;;;;;;;2.53;100.00;99680.86;2189128;80;21558;-91
2022/01/15 13:02:24;;;;;;;21.40;10.13;;;;;;;2.54;100.00;99679.92;2208956;80;21055;-91
2022/01/15 13:05:24;;;;;;;27.62;9.68;;;;;;;2.54;100.00;99691.55;2169192;82;20987;-90
2022/01/15 13:08:27;;;;;;;19.70;8.53;;;;;;;2.55;100.00;99678.98;2169262;82;21066;-90
2022/01/15 13:11:30;;;;;;;14.93;6.55;;;;;;;2.53;100.00;99677.80;2176168;82;21521;-91
2022/01/15 13:14:30;;;;;;;14.93;6.40;;;;;;;2.52;100.00;99681.33;2179359;81;21026;-90
2022/01/15 13:17:31;;;;;;;23.77;9.63;;;;;;;2.51;100.00;99685.31;2179572;81;20989;-92
2022/01/15 13:20:31;;;;;;;15.78;7.53;;;;;;;2.49;100.00;99687.19;2181465;82;21105;-91
2022/01/15 13:23:32;;;;;;;13.62;7.03;;;;;;;2.47;100.00;99687.73;2179945;82;20978;-91
2022/01/15 13:26:36;;;;;;;20.45;6.85;;;;;;;2.44;100.00;99691.36;2179791;82;21013;-89
2022/01/15 13:29:36;;;;;;;19.77;7.80;;;;;;;2.43;100.00;99703.92;2179154;81;21049;-86
2022/01/15 13:32:37;;;;;;;19.52;9.98;;;;;;;2.41;100.00;99700.62;2178913;81;21018;-85
2022/01/15 13:35:37;;;;;;;18.77;9.03;;;;;;;2.37;100.00;99709.50;2178955;81;21049;-85
2022/01/15 13:38:38;;;;;;;19.82;7.95;;;;;;;2.35;100.00;99705.37;2178985;81;21474;-84
2022/01/15 13:41:39;;;;;;;16.85;8.43;;;;;;;2.35;100.00;99711.83;2178772;81;21050;-83
2022/01/15 13:44:40;;;;;;;18.82;9.45;;;;;;;2.35;100.00;99709.25;2179174;81;21554;-83
2022/01/15 13:47:41;;;;;;;17.20;9.65;;;;;;;2.32;100.00;99714.16;2173096;82;21053;-84
2022/01/15 13:54:00;;;;;;;23.55;12.05;;;;;;;2.29;100.00;99718.26;2164310;81;21021;-84
2022/01/15 13:57:02;;;;;;;26.20;12.20;;;;;;;2.27;100.00;99724.80;2184676;81;21499;-84
2022/01/15 14:00:03;;;;;;;26.77;12.33;;;;;;;2.25;100.00;99712.45;2140567;81;21089;-84
2022/01/15 14:03:04;;;;;;;24.60;12.78;;;;;;;2.23;100.00;99723.83;2147901;81;20968;-84
2022/01/15 14:06:05;;;;;;;26.07;14.98;;;;;;;2.21;100.00;99715.36;2184656;81;21037;-84
2022/01/15 14:09:05;;;;;;;30.05;15.15;;;;;;;2.19;100.00;99727.06;2157547;81;21066;-85
2022/01/15 14:12:06;;;;;;;25.00;12.60;;;;;;;2.17;100.00;99737.14;2108134;83;21388;-83
2022/01/15 14:15:14;;;;;;;29.12;13.18;;;;;;;2.15;100.00;99727.37;2170212;82;20984;-84